Time;durP1;ratioP1;P1;durP2;ratioP2;P2;SDS_P1;SDS_P2;PMS_P1;PMS_P2;Temp;Humidity;BMP_temperature;BMP_pressure;BME280_temperature;BME280_humidity;BME280_pressure;Samples;Min_cycle;Max_cycle;Signal;HPM_P1;HPM_P2
2023/08/04 00:01:01;;;;;;;1.10;0.83;;;14.70;99.90;;;;;;4953893;28;20301;-28
2023/08/04 00:03:27;;;;;;;1.13;0.90;;;14.70;99.90;;;;;;4971186;28;20181;-28
2023/08/04 00:05:53;;;;;;;1.47;0.80;;;14.70;99.90;;;;;;4956815;28;20192;-28
2023/08/04 00:08:18;;;;;;;2.73;1.00;;;14.70;99.90;;;;;;4956308;28;20211;-27
2023/08/04 00:10:44;;;;;;;1.73;0.90;;;14.80;99.90;;;;;;4956680;28;20203;-27
2023/08/04 00:13:10;;;;;;;1.43;0.83;;;14.80;99.90;;;;;;4956264;28;20173;-28
2023/08/04 00:15:36;;;;;;;1.30;1.00;;;14.80;99.90;;;;;;4956544;28;20277;-30
2023/08/04 00:18:03;;;;;;;0.87;0.70;;;14.80;99.90;;;;;;4953055;28;20213;-27
2023/08/04 00:20:29;;;;;;;4.17;1.10;;;14.70;99.90;;;;;;4970375;28;20181;-28
2023/08/04 00:22:54;;;;;;;2.37;0.87;;;14.70;99.90;;;;;;4956505;28;20177;-28
2023/08/04 00:25:20;;;;;;;1.17;0.80;;;14.60;99.90;;;;;;4956967;28;20270;-27
2023/08/04 00:27:46;;;;;;;1.33;0.90;;;14.60;99.90;;;;;;4951788;28;20220;-27
2023/08/04 00:30:12;;;;;;;1.60;0.83;;;14.50;99.90;;;;;;4955320;28;20184;-28
2023/08/04 00:32:38;;;;;;;0.90;0.90;;;14.50;99.90;;;;;;4956561;28;20196;-27
2023/08/04 00:35:05;;;;;;;1.77;0.90;;;14.40;99.90;;;;;;4956422;28;20176;-27
2023/08/04 00:37:33;;;;;;;1.87;1.10;;;14.40;99.90;;;;;;4955653;28;20426;-27
2023/08/04 00:39:59;;;;;;;2.80;1.00;;;14.40;99.90;;;;;;4956171;28;20294;-28
2023/08/04 00:42:25;;;;;;;1.13;0.90;;;14.40;99.90;;;;;;4955796;28;20280;-27
2023/08/04 00:44:51;;;;;;;1.93;1.27;;;14.40;99.90;;;;;;4956369;28;20177;-28
2023/08/04 00:47:18;;;;;;;1.77;1.30;;;14.40;99.90;;;;;;4953774;28;20224;-28
2023/08/04 00:49:45;;;;;;;1.20;1.10;;;14.40;99.90;;;;;;4954306;28;20264;-27
2023/08/04 00:52:11;;;;;;;1.53;1.30;;;14.30;99.90;;;;;;4953436;28;20213;-28
2023/08/04 00:54:38;;;;;;;4.70;1.10;;;14.30;99.90;;;;;;4953909;28;20173;-28
2023/08/04 00:57:04;;;;;;;2.97;1.10;;;14.10;99.90;;;;;;4955007;28;20215;-28
2023/08/04 00:59:31;;;;;;;2.13;1.20;;;14.10;99.90;;;;;;4955523;28;20188;-28
2023/08/04 01:01:56;;;;;;;1.40;1.00;;;13.90;99.90;;;;;;4954861;28;20280;-27
2023/08/04 01:04:22;;;;;;;1.83;1.13;;;13.80;99.90;;;;;;4955556;28;20289;-27
2023/08/04 01:06:55;;;;;;;2.73;1.07;;;13.80;99.90;;;;;;4955344;28;20334;-27
2023/08/04 01:09:30;;;;;;;1.97;0.90;;;13.70;99.90;;;;;;4963680;28;20204;-28
2023/08/04 01:12:15;;;;;;;2.93;1.30;;;13.70;99.90;;;;;;4954807;28;20188;-28
2023/08/04 01:14:44;;;;;;;2.03;1.10;;;13.70;99.90;;;;;;4949851;28;20176;-27
2023/08/04 01:17:27;;;;;;;3.13;1.07;;;13.80;99.90;;;;;;4969950;28;20347;-28
2023/08/04 01:19:53;;;;;;;2.50;1.10;;;13.90;99.90;;;;;;4955714;28;20187;-28
2023/08/04 01:22:21;;;;;;;2.70;1.10;;;13.90;99.90;;;;;;4955045;28;20207;-28
2023/08/04 01:24:48;;;;;;;1.13;0.93;;;13.90;99.90;;;;;;4955042;28;20185;-28
2023/08/04 01:27:28;;;;;;;0.80;0.80;;;13.90;99.90;;;;;;4955223;28;20196;-27
2023/08/04 01:29:57;;;;;;;2.10;0.93;;;13.90;99.90;;;;;;4966104;28;20195;-28
2023/08/04 01:32:23;;;;;;;2.57;1.10;;;13.90;99.90;;;;;;4969920;28;20212;-27
2023/08/04 01:34:49;;;;;;;3.53;0.90;;;14.00;99.90;;;;;;4955524;28;20184;-28
2023/08/04 01:37:15;;;;;;;2.57;0.87;;;14.00;99.90;;;;;;4955363;28;20205;-28
2023/08/04 01:39:42;;;;;;;1.63;1.03;;;14.00;99.90;;;;;;4955391;28;20185;-27
2023/08/04 01:42:07;;;;;;;2.50;1.00;;;14.00;99.90;;;;;;4955147;28;20271;-28
2023/08/04 01:44:34;;;;;;;2.33;1.10;;;14.00;99.90;;;;;;4954383;28;20269;-28
2023/08/04 01:47:00;;;;;;;2.37;1.10;;;14.00;99.90;;;;;;4954370;28;20213;-27
2023/08/04 01:49:26;;;;;;;3.80;1.07;;;13.90;99.90;;;;;;4951387;29;20232;-28
2023/08/04 01:51:51;;;;;;;1.20;1.10;;;13.80;99.90;;;;;;4954656;28;20223;-28
2023/08/04 01:54:18;;;;;;;3.27;1.03;;;13.80;99.90;;;;;;4955075;28;20196;-28
2023/08/04 01:56:43;;;;;;;2.57;1.30;;;13.80;99.90;;;;;;4954828;28;20204;-28
2023/08/04 01:59:10;;;;;;;1.50;1.00;;;13.80;99.90;;;;;;4955128;28;20176;-27
2023/08/04 02:01:36;;;;;;;2.47;1.13;;;13.70;99.90;;;;;;4954638;28;20195;-27
2023/08/04 02:04:02;;;;;;;1.83;1.20;;;13.80;99.90;;;;;;4955043;28;20188;-28
2023/08/04 02:06:27;;;;;;;1.93;1.20;;;13.80;99.90;;;;;;4951731;28;20208;-27
2023/08/04 02:08:53;;;;;;;2.00;1.40;;;13.80;99.90;;;;;;4952721;28;20281;-28
2023/08/04 02:11:19;;;;;;;2.00;1.50;;;13.70;99.90;;;;;;4954054;28;20181;-28
2023/08/04 02:13:45;;;;;;;2.80;1.20;;;13.90;99.90;;;;;;4954741;28;20199;-29
2023/08/04 02:16:11;;;;;;;2.00;1.30;;;13.90;99.90;;;;;;4954660;28;20200;-27
2023/08/04 02:18:38;;;;;;;3.13;1.17;;;14.00;99.90;;;;;;4970887;28;20212;-27
2023/08/04 02:21:04;;;;;;;3.27;1.20;;;14.10;99.90;;;;;;4954538;28;20180;-28
2023/08/04 02:23:31;;;;;;;1.50;1.10;;;14.10;99.90;;;;;;4954259;28;20181;-28
2023/08/04 02:25:57;;;;;;;2.57;1.03;;;14.10;99.90;;;;;;4946781;28;20247;-27
2023/08/04 02:28:23;;;;;;;1.47;0.90;;;14.10;99.90;;;;;;4969991;28;20200;-27
2023/08/04 02:30:49;;;;;;;2.27;1.20;;;14.10;99.90;;;;;;4970191;28;20194;-28
2023/08/04 02:33:15;;;;;;;3.70;1.00;;;14.10;99.90;;;;;;4954429;28;20269;-27
2023/08/04 02:35:41;;;;;;;1.80;1.10;;;14.10;99.90;;;;;;4954306;28;20228;-27
2023/08/04 02:38:06;;;;;;;1.77;0.97;;;14.20;99.90;;;;;;4954454;28;20667;-27
2023/08/04 02:40:39;;;;;;;2.50;1.10;;;14.20;99.90;;;;;;4954584;28;20184;-28
2023/08/04 02:43:05;;;;;;;1.33;1.23;;;14.20;99.90;;;;;;4954123;28;20216;-27
2023/08/04 02:45:32;;;;;;;3.83;0.90;;;14.20;99.90;;;;;;4954632;28;20184;-28
2023/08/04 02:47:57;;;;;;;2.20;1.10;;;14.30;99.90;;;;;;4952474;28;20299;-27
2023/08/04 02:50:24;;;;;;;2.30;0.90;;;14.20;99.90;;;;;;4970464;28;20176;-28
2023/08/04 02:52:50;;;;;;;1.30;1.00;;;14.20;99.90;;;;;;4953762;28;20275;-27
2023/08/04 02:55:16;;;;;;;3.83;1.20;;;14.20;99.90;;;;;;4954281;28;20228;-28
2023/08/04 02:57:42;;;;;;;1.97;1.20;;;14.20;99.90;;;;;;4954596;28;20205;-27
2023/08/04 03:00:08;;;;;;;2.23;1.10;;;14.30;99.90;;;;;;4955365;28;20239;-27
2023/08/04 03:02:35;;;;;;;1.57;0.97;;;14.30;99.90;;;;;;4957883;28;20184;-27
2023/08/04 03:05:01;;;;;;;2.07;1.20;;;14.30;99.90;;;;;;4957831;28;20181;-28
2023/08/04 03:07:27;;;;;;;1.27;1.10;;;14.30;99.90;;;;;;4957369;28;20213;-26
2023/08/04 03:09:53;;;;;;;1.17;0.87;;;14.30;99.90;;;;;;4958063;28;20188;-27
2023/08/04 03:12:18;;;;;;;2.13;1.10;;;14.30;99.90;;;;;;4958172;28;20220;-28
2023/08/04 03:14:44;;;;;;;3.70;1.20;;;14.20;99.90;;;;;;4957597;28;20264;-28
2023/08/04 03:17:10;;;;;;;4.20;1.27;;;14.10;99.90;;;;;;4951801;29;20225;-27
2023/08/04 03:19:36;;;;;;;1.97;1.17;;;14.10;99.90;;;;;;4967696;28;20174;-27
2023/08/04 03:22:02;;;;;;;1.03;0.90;;;14.00;99.90;;;;;;4957493;28;20248;-27
2023/08/04 03:24:29;;;;;;;2.60;1.43;;;14.00;99.90;;;;;;4957481;28;20188;-28
2023/08/04 03:26:55;;;;;;;1.50;1.30;;;13.90;99.90;;;;;;4957366;28;20208;-27
2023/08/04 03:29:21;;;;;;;1.73;1.00;;;13.80;99.90;;;;;;4957861;28;20204;-28
2023/08/04 03:31:47;;;;;;;5.33;1.30;;;13.80;99.90;;;;;;4957106;28;20181;-27
2023/08/04 03:34:13;;;;;;;2.83;1.17;;;13.60;99.90;;;;;;4957399;28;20208;-28
2023/08/04 03:36:39;;;;;;;1.50;1.23;;;13.60;99.90;;;;;;4957010;28;20235;-26
2023/08/04 03:39:05;;;;;;;2.43;1.30;;;13.60;99.90;;;;;;4957717;28;20196;-27
2023/08/04 03:41:30;;;;;;;1.57;1.20;;;13.60;99.90;;;;;;4956997;28;20187;-27
2023/08/04 03:43:57;;;;;;;3.90;1.10;;;13.60;99.90;;;;;;4956700;28;20193;-27
2023/08/04 03:46:23;;;;;;;4.53;1.27;;;13.60;99.90;;;;;;4956354;28;20215;-27
2023/08/04 03:48:49;;;;;;;1.30;1.20;;;13.50;99.90;;;;;;4955695;28;20205;-28
2023/08/04 03:51:17;;;;;;;1.27;1.17;;;13.50;99.90;;;;;;4975021;28;20179;-29
2023/08/04 03:53:44;;;;;;;3.10;1.30;;;13.50;99.90;;;;;;4968557;28;20192;-27
2023/08/04 03:56:10;;;;;;;2.50;1.20;;;13.50;99.90;;;;;;4957380;28;20215;-28
2023/08/04 03:58:35;;;;;;;2.33;1.60;;;13.50;99.90;;;;;;4956545;28;20185;-30
2023/08/04 04:01:01;;;;;;;2.57;1.63;;;13.40;99.90;;;;;;4957578;28;20304;-27
2023/08/04 04:03:27;;;;;;;2.30;1.53;;;13.50;99.90;;;;;;4957018;28;20283;-27
2023/08/04 04:05:53;;;;;;;1.97;1.10;;;13.40;99.90;;;;;;4957274;28;20218;-27
2023/08/04 04:08:19;;;;;;;2.07;1.40;;;13.40;99.90;;;;;;4959126;28;20363;-26
2023/08/04 04:10:45;;;;;;;2.80;1.63;;;13.30;99.90;;;;;;4957917;28;20199;-27
2023/08/04 04:13:10;;;;;;;3.20;1.50;;;13.30;99.90;;;;;;4957483;28;20199;-27
2023/08/04 04:15:36;;;;;;;1.20;1.03;;;13.30;99.90;;;;;;4968960;28;20198;-29
2023/08/04 04:18:02;;;;;;;2.40;1.33;;;13.20;99.90;;;;;;4956074;28;20204;-28
2023/08/04 04:20:28;;;;;;;4.10;1.50;;;13.20;99.90;;;;;;4952642;28;20188;-27
2023/08/04 04:22:55;;;;;;;1.73;1.00;;;13.20;99.90;;;;;;4955447;28;20192;-27
2023/08/04 04:25:21;;;;;;;2.33;1.70;;;13.20;99.90;;;;;;4956053;28;20185;-27
2023/08/04 04:27:47;;;;;;;2.70;1.30;;;13.20;99.90;;;;;;4956557;28;20307;-27
2023/08/04 04:30:13;;;;;;;2.60;1.40;;;13.20;99.90;;;;;;4956514;28;20172;-27
2023/08/04 04:32:38;;;;;;;2.20;1.40;;;13.20;99.90;;;;;;4956172;28;20234;-28
2023/08/04 04:35:05;;;;;;;1.97;1.40;;;13.20;99.90;;;;;;4956719;28;20216;-27
2023/08/04 04:37:31;;;;;;;1.93;1.40;;;13.20;99.90;;;;;;4968517;28;20204;-27
2023/08/04 04:39:57;;;;;;;2.30;1.50;;;13.20;99.90;;;;;;4956240;28;20185;-27
2023/08/04 04:42:22;;;;;;;1.43;1.20;;;13.30;99.90;;;;;;4956247;28;20219;-27
2023/08/04 04:44:48;;;;;;;2.37;1.10;;;13.30;99.90;;;;;;4956197;28;20285;-27
2023/08/04 04:47:14;;;;;;;1.37;1.27;;;13.30;99.90;;;;;;4952732;29;20215;-27
2023/08/04 04:49:40;;;;;;;3.57;1.50;;;13.30;99.90;;;;;;4966453;28;20225;-27
2023/08/04 04:52:06;;;;;;;2.57;1.30;;;13.30;99.90;;;;;;4956167;28;20208;-27
2023/08/04 04:54:32;;;;;;;1.90;1.40;;;13.20;99.90;;;;;;4955850;28;20204;-27
2023/08/04 04:56:58;;;;;;;1.87;1.43;;;13.30;99.90;;;;;;4955300;28;20267;-27
2023/08/04 04:59:24;;;;;;;2.07;1.37;;;13.30;99.90;;;;;;4956308;28;20185;-27
2023/08/04 05:01:50;;;;;;;2.30;1.40;;;13.40;99.90;;;;;;4955696;28;20274;-27
2023/08/04 05:04:15;;;;;;;2.43;1.23;;;13.40;99.90;;;;;;4955873;28;20188;-27
2023/08/04 05:06:41;;;;;;;2.80;1.17;;;13.40;99.90;;;;;;4955474;28;20259;-27
2023/08/04 05:09:08;;;;;;;1.33;1.23;;;13.50;99.90;;;;;;4955583;28;20205;-27
2023/08/04 05:11:34;;;;;;;1.87;1.10;;;13.50;99.90;;;;;;4955689;28;20176;-27
2023/08/04 05:13:59;;;;;;;3.47;1.20;;;13.50;99.90;;;;;;4955166;28;20181;-27
2023/08/04 05:16:25;;;;;;;1.67;1.10;;;13.60;99.90;;;;;;4955449;28;20271;-28
2023/08/04 05:18:51;;;;;;;1.23;1.10;;;13.60;99.90;;;;;;4954261;28;20191;-27
2023/08/04 05:21:17;;;;;;;2.80;1.13;;;13.60;99.90;;;;;;4956008;28;20192;-28
2023/08/04 05:23:43;;;;;;;3.83;1.40;;;13.60;99.90;;;;;;4953407;28;20188;-27
2023/08/04 05:26:09;;;;;;;2.03;1.10;;;13.60;99.90;;;;;;4955182;28;20195;-27
2023/08/04 05:28:35;;;;;;;3.50;1.03;;;13.60;99.90;;;;;;4955042;28;20283;-27
2023/08/04 05:31:02;;;;;;;2.20;1.23;;;13.60;99.90;;;;;;4955475;28;20208;-27
2023/08/04 05:33:29;;;;;;;2.30;1.30;;;13.60;99.90;;;;;;4957039;28;20188;-26
2023/08/04 05:35:56;;;;;;;2.30;1.43;;;13.70;99.90;;;;;;4973491;28;20209;-27
2023/08/04 05:38:22;;;;;;;2.47;1.40;;;13.80;99.90;;;;;;4957811;28;20189;-27
2023/08/04 05:40:49;;;;;;;2.40;1.50;;;13.80;99.90;;;;;;4956641;28;20250;-27
2023/08/04 05:43:16;;;;;;;3.40;1.47;;;14.00;99.90;;;;;;4955770;28;20200;-27
2023/08/04 05:45:44;;;;;;;1.73;1.50;;;14.10;99.90;;;;;;4954031;28;20184;-27
2023/08/04 05:48:11;;;;;;;2.17;1.17;;;14.30;99.90;;;;;;4992661;22;20219;-33
2023/08/04 05:50:36;;;;;;;1.87;1.10;;;14.40;99.90;;;;;;4987283;28;20184;-32
2023/08/04 05:53:03;;;;;;;1.87;1.37;;;14.50;99.90;;;;;;5003332;28;20627;-33
2023/08/04 05:55:28;;;;;;;1.37;1.27;;;14.60;99.90;;;;;;4969591;28;20270;-34
2023/08/04 05:57:55;;;;;;;2.00;1.33;;;14.70;99.90;;;;;;4971055;28;20295;-33
2023/08/04 06:00:22;;;;;;;2.43;1.20;;;14.70;99.90;;;;;;4970977;28;20235;-33
2023/08/04 06:02:47;;;;;;;2.63;1.40;;;14.80;99.90;;;;;;4987010;28;20184;-33
2023/08/04 06:05:13;;;;;;;3.80;1.30;;;14.90;99.90;;;;;;4974104;28;20231;-33
2023/08/04 06:07:40;;;;;;;2.27;1.00;;;15.00;99.90;;;;;;4990668;28;20227;-33
2023/08/04 06:10:08;;;;;;;2.63;1.30;;;15.20;99.90;;;;;;4987361;28;20176;-33
2023/08/04 06:12:34;;;;;;;1.33;1.10;;;15.40;99.90;;;;;;4987183;28;20181;-33
2023/08/04 06:15:00;;;;;;;2.10;1.20;;;15.50;99.90;;;;;;4986923;28;20220;-33
2023/08/04 06:17:25;;;;;;;3.63;1.33;;;15.60;99.90;;;;;;4970735;28;20192;-33
2023/08/04 06:19:52;;;;;;;2.87;1.73;;;15.60;99.90;;;;;;4986823;28;20192;-33
2023/08/04 06:22:18;;;;;;;1.57;1.10;;;15.80;99.90;;;;;;4994898;28;20173;-33
2023/08/04 06:24:43;;;;;;;1.53;1.03;;;15.90;99.90;;;;;;4970155;28;20185;-33
2023/08/04 06:27:09;;;;;;;2.30;1.27;;;16.10;99.90;;;;;;4966117;28;20315;-33
2023/08/04 06:29:35;;;;;;;2.13;0.90;;;16.40;99.90;;;;;;4972517;28;20236;-33
2023/08/04 06:32:02;;;;;;;2.73;0.90;;;16.50;99.90;;;;;;4972795;28;20184;-33
2023/08/04 06:34:27;;;;;;;2.13;1.05;;;16.60;99.90;;;;;;4988545;28;20271;-33
2023/08/04 06:36:53;;;;;;;1.97;1.10;;;16.80;99.90;;;;;;4997723;28;20303;-33
2023/08/04 06:39:19;;;;;;;1.33;1.00;;;16.90;99.90;;;;;;4974438;28;20258;-33
2023/08/04 06:41:45;;;;;;;1.53;0.93;;;17.00;99.90;;;;;;4990243;28;20188;-33
2023/08/04 06:44:13;;;;;;;3.60;1.38;;;17.10;99.90;;;;;;4973008;28;20188;-33
2023/08/04 06:46:39;;;;;;;2.08;0.98;;;17.20;99.90;;;;;;5007410;28;20262;-33
2023/08/04 06:49:05;;;;;;;2.70;1.00;;;17.20;99.90;;;;;;4968271;28;20216;-33
2023/08/04 06:51:31;;;;;;;1.88;1.00;;;17.20;99.90;;;;;;4992249;28;20200;-33
2023/08/04 06:53:58;;;;;;;2.80;1.15;;;17.30;99.90;;;;;;4997414;28;20235;-34
2023/08/04 06:56:26;;;;;;;1.80;1.17;;;17.40;99.90;;;;;;4970874;28;20216;-33
2023/08/04 06:58:53;;;;;;;1.33;0.70;;;17.50;99.90;;;;;;4982080;28;20263;-33
2023/08/04 07:01:18;;;;;;;1.65;0.90;;;17.60;99.90;;;;;;4967215;28;20279;-33
2023/08/04 07:03:47;;;;;;;2.47;1.10;;;17.70;99.90;;;;;;4958383;28;20193;-33
2023/08/04 07:06:14;;;;;;;1.52;0.80;;;17.70;99.90;;;;;;4953828;28;20185;-33
2023/08/04 07:08:43;;;;;;;1.85;1.05;;;17.80;99.90;;;;;;4986032;28;20275;-34
2023/08/04 07:11:15;;;;;;;2.92;1.40;;;18.00;99.90;;;;;;4971898;28;20203;-33
2023/08/04 07:13:42;;;;;;;2.28;1.00;;;18.20;99.90;;;;;;4972756;28;20267;-33
2023/08/04 07:16:10;;;;;;;2.45;0.93;;;18.30;99.90;;;;;;4971770;28;20180;-33
2023/08/04 07:18:39;;;;;;;1.60;1.00;;;18.30;99.90;;;;;;4975654;28;20259;-33
2023/08/04 07:21:07;;;;;;;2.20;1.00;;;18.40;99.90;;;;;;4982946;28;20199;-33
2023/08/04 07:23:34;;;;;;;1.58;1.00;;;18.40;99.90;;;;;;4988844;28;20187;-35
2023/08/04 07:26:05;;;;;;;2.05;1.02;;;18.40;99.90;;;;;;4972915;28;20275;-33
2023/08/04 07:28:35;;;;;;;2.47;1.20;;;18.40;99.90;;;;;;4970182;28;20223;-33
2023/08/04 07:31:10;;;;;;;2.63;1.17;;;18.40;99.90;;;;;;4987149;28;20215;-33
2023/08/04 07:33:39;;;;;;;1.25;1.05;;;18.40;99.90;;;;;;4952706;28;20195;-34
2023/08/04 07:36:05;;;;;;;2.10;1.00;;;18.30;99.90;;;;;;4968690;28;20276;-33
2023/08/04 07:38:31;;;;;;;2.08;0.82;;;18.40;99.90;;;;;;4995771;28;20208;-33
2023/08/04 07:40:58;;;;;;;0.95;0.90;;;18.30;99.90;;;;;;4981037;28;20181;-33
2023/08/04 07:43:24;;;;;;;1.15;0.95;;;18.30;99.90;;;;;;4971246;28;20263;-33
2023/08/04 07:45:52;;;;;;;2.15;1.20;;;18.30;99.90;;;;;;4980594;28;20664;-33
2023/08/04 07:48:18;;;;;;;2.65;1.00;;;18.40;99.90;;;;;;4994720;28;20683;-33
2023/08/04 07:50:46;;;;;;;2.08;1.10;;;18.50;99.90;;;;;;4953341;28;20247;-33
2023/08/04 07:53:13;;;;;;;3.08;1.13;;;18.60;99.90;;;;;;4974583;28;20207;-34
2023/08/04 07:55:39;;;;;;;1.65;1.20;;;18.80;99.90;;;;;;4988935;28;20172;-33
2023/08/04 07:58:09;;;;;;;1.60;1.02;;;19.00;99.90;;;;;;4989456;28;20247;-34
2023/08/04 08:00:36;;;;;;;2.40;1.30;;;19.20;99.90;;;;;;4973585;28;20188;-33
2023/08/04 08:03:03;;;;;;;2.08;1.05;;;19.30;99.90;;;;;;5000113;28;20188;-33
2023/08/04 08:05:29;;;;;;;1.98;1.00;;;19.40;99.90;;;;;;4994084;28;20215;-33
2023/08/04 08:07:56;;;;;;;1.80;1.10;;;19.60;99.90;;;;;;4989210;28;20220;-33
2023/08/04 08:10:23;;;;;;;1.30;0.88;;;19.80;99.90;;;;;;5001124;28;20180;-33
2023/08/04 08:12:50;;;;;;;3.72;1.15;;;20.00;99.90;;;;;;5008666;28;20183;-34
2023/08/04 08:15:16;;;;;;;1.35;0.98;;;20.10;99.90;;;;;;4979303;28;20277;-34
2023/08/04 08:17:43;;;;;;;2.25;1.30;;;20.30;99.90;;;;;;4975575;28;20276;-34
2023/08/04 08:20:09;;;;;;;1.88;1.00;;;20.50;99.90;;;;;;4973101;28;20185;-35
2023/08/04 08:22:35;;;;;;;2.40;1.13;;;20.50;99.90;;;;;;4973555;28;20192;-34
2023/08/04 08:25:00;;;;;;;1.45;0.82;;;20.80;99.90;;;;;;5008500;28;20199;-34
2023/08/04 08:27:26;;;;;;;1.80;0.85;;;20.80;99.90;;;;;;4979057;28;20667;-34
2023/08/04 08:29:54;;;;;;;2.25;1.05;;;20.70;99.90;;;;;;4962037;28;20191;-34
2023/08/04 08:32:21;;;;;;;1.48;0.80;;;20.80;99.90;;;;;;4996250;28;20183;-33
2023/08/04 08:34:48;;;;;;;1.17;0.95;;;20.80;99.90;;;;;;4980273;28;20212;-34
2023/08/04 08:37:14;;;;;;;1.73;1.00;;;20.90;99.90;;;;;;4972206;28;20203;-33
2023/08/04 08:39:40;;;;;;;1.63;0.90;;;21.10;99.90;;;;;;4987505;28;20184;-34
2023/08/04 08:42:06;;;;;;;1.85;0.73;;;21.10;99.90;;;;;;5000401;28;20335;-33
2023/08/04 08:44:32;;;;;;;0.98;0.70;;;21.10;99.90;;;;;;5004427;28;20184;-33
2023/08/04 08:46:58;;;;;;;0.98;0.70;;;20.90;99.90;;;;;;4991789;28;20306;-33
2023/08/04 08:49:27;;;;;;;1.17;0.73;;;20.70;99.90;;;;;;4973333;28;20235;-33
2023/08/04 08:51:54;;;;;;;0.50;0.50;;;20.50;99.90;;;;;;4988720;28;20196;-34
2023/08/04 08:54:21;;;;;;;1.42;0.70;;;20.60;99.90;;;;;;4997336;28;20207;-33
2023/08/04 08:56:47;;;;;;;2.17;0.80;;;20.50;99.90;;;;;;4997957;28;20204;-33
2023/08/04 08:59:13;;;;;;;1.60;0.80;;;20.40;99.90;;;;;;4990012;28;20187;-33
2023/08/04 09:01:39;;;;;;;1.60;0.80;;;20.40;99.90;;;;;;5004083;28;20215;-33
2023/08/04 09:04:06;;;;;;;0.90;0.80;;;20.60;99.90;;;;;;4983485;28;20223;-33
2023/08/04 09:06:32;;;;;;;1.50;0.60;;;20.60;99.90;;;;;;4989916;28;20185;-33
2023/08/04 09:09:01;;;;;;;2.10;0.93;;;20.60;99.90;;;;;;5003079;28;20212;-33
2023/08/04 09:11:30;;;;;;;1.00;0.63;;;20.90;99.90;;;;;;4973821;28;20183;-33
2023/08/04 09:13:56;;;;;;;0.60;0.60;;;21.20;99.90;;;;;;4994557;28;20196;-34
2023/08/04 09:16:39;;;;;;;1.25;0.80;;;21.60;99.90;;;;;;4988947;28;20200;-34
2023/08/04 09:19:06;;;;;;;0.73;0.73;;;21.90;99.90;;;;;;4977433;28;20216;-33
2023/08/04 09:21:36;;;;;;;1.65;0.70;;;21.90;99.90;;;;;;4989391;28;20185;-33
2023/08/04 09:24:07;;;;;;;1.45;0.60;;;21.80;99.90;;;;;;4987963;28;20188;-33
2023/08/04 09:26:53;;;;;;;0.55;0.52;;;21.60;99.90;;;;;;4969936;28;20219;-34
2023/08/04 09:29:19;;;;;;;1.42;0.82;;;21.40;99.90;;;;;;4967557;28;20278;-34
2023/08/04 09:31:48;;;;;;;1.33;0.80;;;21.10;99.90;;;;;;4984031;28;20184;-33
2023/08/04 09:34:14;;;;;;;1.23;0.75;;;21.00;99.90;;;;;;4990431;28;20199;-33
2023/08/04 09:36:45;;;;;;;1.80;0.80;;;20.80;99.90;;;;;;4974952;28;20208;-33
2023/08/04 09:39:12;;;;;;;1.52;0.70;;;20.50;99.90;;;;;;4981430;28;20184;-33
2023/08/04 09:41:49;;;;;;;1.27;0.70;;;20.40;99.90;;;;;;4981585;28;20234;-33
2023/08/04 09:44:20;;;;;;;1.50;0.75;;;20.30;99.90;;;;;;4963746;28;20200;-33
2023/08/04 09:46:57;;;;;;;0.90;0.60;;;20.10;99.90;;;;;;4954052;28;20242;-33
2023/08/04 09:49:29;;;;;;;1.05;0.70;;;20.10;99.90;;;;;;4984985;28;20235;-34
2023/08/04 09:51:57;;;;;;;1.02;0.73;;;20.00;99.90;;;;;;4986827;28;20666;-33
2023/08/04 09:54:24;;;;;;;0.65;0.65;;;20.00;99.90;;;;;;4962826;28;20235;-33
2023/08/04 09:56:54;;;;;;;2.08;0.88;;;20.00;99.90;;;;;;4983491;28;20287;-33
2023/08/04 09:59:21;;;;;;;2.25;0.82;;;20.10;99.90;;;;;;4986374;28;20216;-33
2023/08/04 10:01:52;;;;;;;0.60;0.60;;;20.30;99.90;;;;;;4979324;28;20189;-34
2023/08/04 10:04:21;;;;;;;0.60;0.60;;;20.40;99.90;;;;;;4986320;28;20199;-33
2023/08/04 10:06:49;;;;;;;1.02;0.65;;;20.40;99.90;;;;;;4986470;28;20208;-34
2023/08/04 10:09:23;;;;;;;0.52;0.40;;;20.60;99.90;;;;;;4993615;28;20207;-33
2023/08/04 10:11:56;;;;;;;0.50;0.50;;;20.70;99.90;;;;;;4994481;28;20181;-34
2023/08/04 10:14:44;;;;;;;0.52;0.52;;;20.80;99.90;;;;;;4968706;28;20191;-34
2023/08/04 10:17:14;;;;;;;0.57;0.45;;;21.10;99.90;;;;;;4956422;28;20200;-34
2023/08/04 10:19:41;;;;;;;0.50;0.50;;;21.40;99.90;;;;;;4974274;28;20199;-35
2023/08/04 10:22:10;;;;;;;0.60;0.57;;;21.60;99.90;;;;;;4987637;28;20291;-36
2023/08/04 10:24:43;;;;;;;2.83;0.50;;;21.80;99.90;;;;;;4985466;28;20216;-35
2023/08/04 10:27:45;;;;;;;0.55;0.40;;;22.20;99.90;;;;;;4982691;28;20197;-35
2023/08/04 10:30:16;;;;;;;1.20;0.60;;;22.50;99.90;;;;;;4985838;28;20236;-34
2023/08/04 10:32:47;;;;;;;1.13;0.43;;;22.60;99.90;;;;;;4982380;28;20215;-35
2023/08/04 10:35:19;;;;;;;1.08;0.52;;;22.80;99.90;;;;;;4970065;28;20189;-35
2023/08/04 10:37:50;;;;;;;1.13;0.60;;;22.70;99.90;;;;;;4986096;28;20208;-34
2023/08/04 10:40:33;;;;;;;0.85;0.40;;;22.70;99.90;;;;;;4993784;28;20212;-33
2023/08/04 10:43:08;;;;;;;0.75;0.63;;;22.70;99.90;;;;;;4970620;28;20208;-34
2023/08/04 10:46:09;;;;;;;0.90;0.57;;;22.80;99.90;;;;;;4986235;28;20271;-35
2023/08/04 10:48:38;;;;;;;0.60;0.60;;;23.10;99.90;;;;;;4960881;28;20310;-35
2023/08/04 10:51:06;;;;;;;1.13;0.60;;;23.20;99.90;;;;;;4984513;28;20184;-35
2023/08/04 10:53:32;;;;;;;1.15;0.63;;;23.40;99.90;;;;;;4987168;28;20448;-34
2023/08/04 10:56:02;;;;;;;1.20;0.50;;;23.10;99.90;;;;;;4986023;28;20260;-37
2023/08/04 10:58:29;;;;;;;0.57;0.40;;;22.60;99.90;;;;;;4990160;28;20242;-35
2023/08/04 11:00:57;;;;;;;0.32;0.32;;;21.90;99.90;;;;;;5001458;28;20267;-35
2023/08/04 11:03:33;;;;;;;4.10;0.60;;;21.30;99.90;;;;;;4962712;28;20212;-35
2023/08/04 11:06:00;;;;;;;1.02;0.60;;;20.80;99.90;;;;;;4965231;28;20231;-35
2023/08/04 11:08:27;;;;;;;1.55;0.60;;;20.40;99.90;;;;;;4984713;28;20236;-38
2023/08/04 11:10:56;;;;;;;0.40;0.40;;;20.10;99.90;;;;;;4970246;28;20192;-35
2023/08/04 11:13:24;;;;;;;0.50;0.50;;;20.10;99.90;;;;;;4985421;28;20199;-35
2023/08/04 11:15:53;;;;;;;0.80;0.60;;;20.10;99.90;;;;;;4970342;28;20188;-34
2023/08/04 11:18:25;;;;;;;1.20;0.55;;;20.30;99.90;;;;;;4985914;28;20208;-35
2023/08/04 11:20:53;;;;;;;1.20;0.60;;;20.70;99.90;;;;;;4988649;28;20180;-35
2023/08/04 11:23:27;;;;;;;0.70;0.70;;;21.10;99.90;;;;;;4993570;28;20215;-37
2023/08/04 11:25:55;;;;;;;1.10;0.70;;;21.50;99.90;;;;;;5009753;28;20179;-36
2023/08/04 11:28:22;;;;;;;0.50;0.50;;;21.80;99.90;;;;;;4993430;28;20302;-37
2023/08/04 11:30:49;;;;;;;0.65;0.60;;;22.10;99.90;;;;;;4992997;28;20184;-35
2023/08/04 11:33:18;;;;;;;0.70;0.70;;;22.40;99.90;;;;;;5009334;28;20207;-34
2023/08/04 11:35:45;;;;;;;1.10;0.70;;;22.40;99.90;;;;;;5009527;28;20187;-35
2023/08/04 11:38:12;;;;;;;1.45;0.60;;;22.50;99.90;;;;;;4989761;28;20212;-36
2023/08/04 11:40:58;;;;;;;2.00;0.85;;;22.60;99.90;;;;;;4973484;28;20195;-35
2023/08/04 11:43:38;;;;;;;1.95;0.70;;;22.60;99.90;;;;;;4988474;28;20263;-35
2023/08/04 11:46:09;;;;;;;0.77;0.50;;;22.60;99.90;;;;;;4987066;28;20197;-35
2023/08/04 11:48:38;;;;;;;0.90;0.60;;;22.60;99.90;;;;;;4988564;28;20215;-34
2023/08/04 11:51:09;;;;;;;1.55;0.60;;;22.60;99.90;;;;;;4989166;28;20200;-34
2023/08/04 11:53:37;;;;;;;0.60;0.60;;;22.50;99.90;;;;;;4972173;28;20177;-37
2023/08/04 11:56:08;;;;;;;1.75;0.60;;;22.40;99.90;;;;;;4968703;28;20173;-36
2023/08/04 11:58:37;;;;;;;0.82;0.52;;;22.50;99.90;;;;;;4986742;28;20206;-34
2023/08/04 12:01:04;;;;;;;0.40;0.40;;;22.60;99.90;;;;;;5001975;28;20192;-34
2023/08/04 12:03:47;;;;;;;0.45;0.45;;;22.70;99.90;;;;;;4987026;28;20184;-33
2023/08/04 12:06:18;;;;;;;0.43;0.43;;;22.70;99.90;;;;;;5006065;28;20191;-33
2023/08/04 12:08:51;;;;;;;1.17;0.40;;;22.50;99.90;;;;;;5006701;28;20214;-33
2023/08/04 12:11:18;;;;;;;0.32;0.32;;;22.30;99.90;;;;;;5000042;28;20181;-33
2023/08/04 12:13:44;;;;;;;0.65;0.60;;;22.10;99.90;;;;;;4990159;28;20196;-33
2023/08/04 12:16:12;;;;;;;0.50;0.50;;;22.20;99.90;;;;;;4974946;28;20189;-33
2023/08/04 12:18:39;;;;;;;0.45;0.40;;;22.10;99.90;;;;;;4991206;28;20204;-33
2023/08/04 12:21:05;;;;;;;0.50;0.50;;;22.20;99.90;;;;;;4991630;28;20192;-33
2023/08/04 12:23:31;;;;;;;0.57;0.50;;;22.30;99.90;;;;;;4996165;28;20255;-33
2023/08/04 12:26:00;;;;;;;1.00;0.60;;;22.20;99.90;;;;;;4987736;28;20191;-34
2023/08/04 12:28:26;;;;;;;0.50;0.50;;;22.20;99.90;;;;;;5000298;28;20239;-33
2023/08/04 12:30:51;;;;;;;0.50;0.50;;;22.30;99.90;;;;;;5001571;28;20215;-33
2023/08/04 12:33:17;;;;;;;1.13;0.60;;;22.10;99.90;;;;;;5006974;28;20180;-33
2023/08/04 12:35:43;;;;;;;0.60;0.60;;;22.20;99.90;;;;;;5008216;28;20216;-33
2023/08/04 12:38:09;;;;;;;2.40;0.70;;;22.20;99.90;;;;;;4991735;28;20266;-33
2023/08/04 12:40:35;;;;;;;0.73;0.70;;;22.20;99.90;;;;;;5008224;28;20263;-34
2023/08/04 12:43:01;;;;;;;0.60;0.55;;;22.20;99.90;;;;;;5008421;28;20190;-34
2023/08/04 12:45:27;;;;;;;0.63;0.52;;;22.40;99.90;;;;;;4984003;28;20185;-33
2023/08/04 12:47:53;;;;;;;0.80;0.75;;;22.70;99.90;;;;;;4987784;28;20267;-33
2023/08/04 12:50:22;;;;;;;1.40;0.43;;;22.90;99.90;;;;;;4997531;28;20187;-33